createdAt,value
2022-10-03T00:01:42.412Z,29.83
2022-10-03T00:04:42.665Z,32.50
2022-10-03T00:07:50.716Z,30.85
2022-10-03T00:10:57.222Z,33.60
2022-10-03T00:13:53.552Z,30.67
2022-10-03T00:16:55.638Z,37.17
2022-10-03T00:20:00.303Z,39.78
2022-10-03T00:23:04.266Z,33.38
2022-10-03T00:26:32.729Z,35.03
2022-10-03T00:29:25.615Z,38.72
2022-10-03T00:32:43.706Z,32.50
2022-10-03T00:36:04.598Z,35.63
2022-10-03T00:39:16.244Z,38.13
2022-10-03T00:42:25.343Z,34.47
2022-10-03T00:45:51.044Z,34.63
2022-10-03T00:49:22.833Z,32.67
2022-10-03T00:52:15.604Z,31.67
2022-10-03T00:55:22.042Z,31.67
2022-10-03T00:58:23.972Z,31.55
2022-10-03T01:01:28.877Z,31.95
2022-10-03T01:04:33.957Z,37.22
2022-10-03T01:07:43.262Z,30.08
2022-10-03T01:10:33.246Z,32.65
2022-10-03T01:13:23.523Z,35.70
2022-10-03T01:16:31.237Z,34.47
2022-10-03T01:19:43.237Z,31.58
2022-10-03T01:22:51.992Z,35.38
2022-10-03T01:26:19.474Z,32.15
2022-10-03T01:29:34.051Z,33.97
2022-10-03T01:32:38.621Z,34.20
2022-10-03T01:36:03.108Z,32.20
2022-10-03T01:39:00.422Z,32.30
2022-10-03T01:41:59.183Z,32.17
2022-10-03T01:45:08.006Z,27.05
2022-10-03T01:48:21.946Z,25.23
2022-10-03T01:51:19.945Z,29.23
2022-10-03T01:54:20.117Z,29.40
2022-10-03T01:57:19.528Z,25.50
2022-10-03T02:00:15.887Z,35.88
2022-10-03T02:03:11.091Z,30.08
2022-10-03T02:06:10.901Z,27.92
2022-10-03T02:09:28.998Z,23.90
2022-10-03T02:12:22.828Z,24.85
2022-10-03T02:15:24.815Z,29.20
2022-10-03T02:18:34.847Z,24.50
2022-10-03T02:21:32.158Z,25.67
2022-10-03T02:24:28.621Z,23.08
2022-10-03T02:27:47.556Z,24.60
2022-10-03T02:31:03.678Z,23.90
2022-10-03T02:34:22.008Z,22.08
2022-10-03T02:37:46.665Z,27.88
2022-10-03T02:41:01.950Z,27.30
2022-10-03T02:44:37.304Z,27.27
2022-10-03T02:47:42.776Z,26.65
2022-10-03T02:50:47.440Z,29.55
2022-10-03T02:56:48.272Z,19.38
2022-10-03T03:02:49.599Z,25.80
2022-10-03T03:06:10.500Z,22.17
2022-10-03T03:09:34.579Z,23.73
2022-10-03T03:12:55.525Z,28.77
2022-10-03T03:16:23.007Z,25.73
2022-10-03T03:19:34.846Z,31.50
2022-10-03T03:22:46.376Z,27.75
2022-10-03T03:26:00.090Z,26.75
2022-10-03T03:28:59.965Z,30.23
2022-10-03T03:32:14.359Z,29.60
2022-10-03T03:35:07.418Z,25.38
2022-10-03T03:38:28.164Z,28.90
2022-10-03T03:41:28.679Z,29.80
2022-10-03T03:44:58.344Z,31.67
2022-10-03T03:48:08.403Z,29.70
2022-10-03T03:51:36.189Z,35.05
2022-10-03T03:54:35.731Z,29.50
2022-10-03T03:58:02.738Z,31.52
2022-10-03T04:01:16.045Z,30.35
2022-10-03T04:04:29.193Z,31.40
2022-10-03T04:07:40.613Z,28.65
2022-10-03T04:11:01.303Z,29.05
2022-10-03T04:14:08.611Z,28.55
2022-10-03T04:17:49.729Z,31.48
2022-10-03T04:20:58.061Z,32.08
2022-10-03T04:24:00.283Z,29.70
2022-10-03T04:27:04.302Z,33.13
2022-10-03T04:30:18.368Z,29.73
2022-10-03T04:33:11.867Z,30.13
2022-10-03T04:36:20.865Z,36.63
2022-10-03T04:39:25.419Z,30.80
2022-10-03T04:42:30.134Z,33.42
2022-10-03T04:45:43.011Z,30.35
2022-10-03T04:48:45.894Z,31.35
2022-10-03T04:51:55.311Z,31.30
2022-10-03T04:55:17.182Z,30.95
2022-10-03T04:58:34.757Z,35.95
2022-10-03T05:01:33.786Z,36.40
2022-10-03T05:04:27.158Z,38.85
2022-10-03T05:07:42.153Z,43.65
2022-10-03T05:10:53.854Z,40.88
2022-10-03T05:14:03.625Z,34.75
2022-10-03T05:17:11.980Z,34.67
2022-10-03T05:20:25.694Z,31.95
2022-10-03T05:23:19.217Z,35.75
2022-10-03T05:30:02.976Z,34.28
2022-10-03T05:33:06.311Z,34.80
2022-10-03T05:36:28.061Z,35.17
2022-10-03T05:39:36.488Z,35.38
2022-10-03T05:42:35.633Z,36.50
2022-10-03T05:45:32.414Z,32.20
2022-10-03T05:48:37.710Z,35.00
2022-10-03T05:52:04.137Z,35.55
2022-10-03T05:55:22.267Z,42.08
2022-10-03T05:58:30.973Z,38.60
2022-10-03T06:01:43.547Z,34.47
2022-10-03T06:04:53.499Z,36.22
2022-10-03T06:07:46.813Z,35.17
2022-10-03T06:10:50.870Z,46.22
2022-10-03T06:14:16.435Z,39.22
2022-10-03T06:17:43.172Z,35.55
2022-10-03T06:21:00.220Z,35.75
2022-10-03T06:23:58.788Z,36.90
2022-10-03T06:27:25.678Z,29.58
2022-10-03T06:30:23.082Z,42.53
2022-10-03T06:33:53.333Z,41.00
2022-10-03T06:37:11.635Z,34.10
2022-10-03T06:40:09.606Z,36.58
2022-10-03T06:43:03.324Z,38.60
2022-10-03T06:46:24.397Z,45.70
2022-10-03T06:49:19.393Z,34.55
2022-10-03T06:52:17.752Z,34.05
2022-10-03T06:55:29.617Z,37.90
2022-10-03T06:58:28.613Z,39.45
2022-10-03T07:01:50.682Z,47.47
2022-10-03T07:04:59.619Z,38.17
2022-10-03T07:08:19.654Z,38.40
2022-10-03T07:11:47.606Z,36.58
2022-10-03T07:14:59.474Z,34.95
2022-10-03T07:18:08.964Z,34.85
2022-10-03T07:21:02.195Z,30.98
2022-10-03T07:24:13.976Z,36.20
2022-10-03T07:27:17.765Z,32.92
2022-10-03T07:30:16.746Z,28.45
2022-10-03T07:33:54.479Z,30.52
2022-10-03T07:37:09.496Z,27.83
2022-10-03T07:40:18.347Z,25.98
2022-10-03T07:43:35.930Z,23.30
2022-10-03T07:46:38.488Z,24.58
2022-10-03T07:49:52.427Z,25.30
2022-10-03T07:53:27.206Z,22.48
2022-10-03T07:56:34.228Z,35.57
2022-10-03T07:59:45.160Z,23.65
2022-10-03T08:03:00.842Z,27.40
2022-10-03T08:06:06.795Z,25.10
2022-10-03T08:09:47.314Z,27.77
2022-10-03T08:13:02.582Z,30.00
2022-10-03T08:15:58.882Z,28.80
2022-10-03T08:18:49.170Z,21.92
2022-10-03T08:21:55.718Z,27.98
2022-10-03T08:25:18.117Z,22.42
2022-10-03T08:28:41.456Z,23.48
2022-10-03T08:31:47.666Z,23.67
2022-10-03T08:35:07.587Z,27.92
2022-10-03T08:38:19.332Z,34.83
2022-10-03T08:41:28.176Z,25.00
2022-10-03T08:44:40.577Z,19.10
2022-10-03T08:47:55.282Z,19.58
2022-10-03T08:51:06.757Z,29.42
2022-10-03T08:54:32.933Z,21.35
2022-10-03T08:57:45.338Z,21.55
2022-10-03T09:00:48.010Z,19.85
2022-10-03T09:04:00.811Z,18.35
2022-10-03T09:07:19.129Z,19.45
2022-10-03T09:10:35.215Z,23.42
2022-10-03T09:13:31.893Z,21.30
2022-10-03T09:16:42.265Z,21.38
2022-10-03T09:19:49.167Z,22.52
2022-10-03T09:22:55.007Z,23.42
2022-10-03T09:26:29.024Z,18.75
2022-10-03T09:29:51.764Z,21.75
2022-10-03T09:32:56.941Z,16.67
2022-10-03T09:35:51.060Z,18.17
2022-10-03T09:42:12.451Z,20.08
2022-10-03T09:45:31.102Z,22.73
2022-10-03T09:48:43.834Z,19.88
2022-10-03T09:51:43.988Z,18.25
2022-10-03T09:54:50.079Z,21.52
2022-10-03T09:57:59.258Z,23.30
2022-10-03T10:01:20.555Z,19.25
2022-10-03T10:04:53.819Z,16.70
2022-10-03T10:08:16.437Z,21.92
2022-10-03T10:11:17.553Z,20.75
2022-10-03T10:14:36.646Z,13.75
2022-10-03T10:17:52.208Z,19.33
2022-10-03T10:21:23.894Z,16.55
2022-10-03T10:24:17.446Z,18.50
2022-10-03T10:27:45.077Z,21.13
2022-10-03T10:30:55.570Z,16.58
2022-10-03T10:34:01.228Z,15.15
2022-10-03T10:37:30.107Z,11.43
2022-10-03T10:41:03.930Z,17.90
2022-10-03T10:44:21.654Z,13.63
2022-10-03T10:47:56.447Z,18.52
2022-10-03T10:51:21.658Z,9.60
2022-10-03T10:54:42.683Z,17.50
2022-10-03T10:57:40.452Z,14.02
2022-10-03T11:00:58.290Z,17.55
2022-10-03T11:04:26.994Z,15.73
2022-10-03T11:07:59.551Z,7.72
2022-10-03T11:11:11.982Z,8.02
2022-10-03T11:14:39.691Z,12.55
2022-10-03T11:17:32.595Z,12.93
2022-10-03T11:20:57.840Z,11.32
2022-10-03T11:24:14.919Z,13.82
2022-10-03T11:27:29.482Z,13.68
2022-10-03T11:30:32.267Z,12.63
2022-10-03T11:33:52.023Z,15.93
2022-10-03T11:37:14.076Z,17.30
2022-10-03T11:40:31.356Z,9.77
2022-10-03T11:43:45.889Z,15.20
2022-10-03T11:46:57.126Z,11.82
2022-10-03T11:50:23.491Z,10.52
2022-10-03T11:53:17.074Z,13.15
2022-10-03T11:56:20.055Z,9.95
2022-10-03T11:59:11.998Z,11.55
2022-10-03T12:02:34.523Z,11.82
2022-10-03T12:05:33.301Z,8.75
2022-10-03T12:08:53.409Z,8.15
2022-10-03T12:12:14.313Z,9.27
2022-10-03T12:15:42.344Z,12.80
2022-10-03T12:18:42.735Z,12.02
2022-10-03T12:21:50.185Z,12.07
2022-10-03T12:24:47.253Z,7.38
2022-10-03T12:27:54.941Z,13.98
2022-10-03T12:31:08.809Z,11.52
2022-10-03T12:34:06.741Z,7.82
2022-10-03T12:37:40.454Z,13.88
2022-10-03T12:40:37.540Z,8.00
2022-10-03T12:43:44.918Z,10.38
2022-10-03T12:46:46.506Z,10.65
2022-10-03T12:49:39.585Z,9.18
2022-10-03T12:52:41.152Z,7.25
2022-10-03T12:55:34.884Z,10.05
2022-10-03T12:58:44.798Z,11.38
2022-10-03T13:01:41.243Z,11.77
2022-10-03T13:05:01.322Z,9.63
2022-10-03T13:07:57.710Z,15.68
2022-10-03T13:10:53.770Z,9.23
2022-10-03T13:14:18.971Z,8.07
2022-10-03T13:17:29.138Z,15.50
2022-10-03T13:20:39.298Z,8.30
2022-10-03T13:23:43.018Z,4.45
2022-10-03T13:26:44.758Z,6.77
2022-10-03T13:29:44.958Z,13.57
2022-10-03T13:32:42.782Z,7.25
2022-10-03T13:35:59.485Z,9.30
2022-10-03T13:39:11.511Z,8.68
2022-10-03T13:42:04.818Z,4.10
2022-10-03T13:45:00.819Z,6.75
2022-10-03T13:47:55.619Z,7.63
2022-10-03T13:50:55.546Z,9.68
2022-10-03T13:54:01.905Z,5.22
2022-10-03T13:57:03.037Z,6.88
2022-10-03T14:00:08.363Z,5.53
2022-10-03T14:03:20.956Z,7.70
2022-10-03T14:06:36.663Z,5.88
2022-10-03T14:09:33.942Z,6.60
2022-10-03T14:12:55.860Z,6.53
2022-10-03T14:15:52.647Z,7.00
2022-10-03T14:18:51.640Z,9.50
2022-10-03T14:22:05.007Z,10.20
2022-10-03T14:25:17.715Z,7.93
2022-10-03T14:28:19.333Z,9.93
2022-10-03T14:31:17.379Z,11.18
2022-10-03T14:34:55.888Z,8.45
2022-10-03T14:38:03.935Z,10.55
2022-10-03T14:41:05.256Z,6.95
2022-10-03T14:44:00.086Z,9.57
2022-10-03T14:47:12.006Z,7.78
2022-10-03T14:50:03.526Z,11.30
2022-10-03T14:53:20.652Z,13.48
2022-10-03T14:56:19.613Z,8.82
2022-10-03T14:59:20.537Z,7.32
2022-10-03T15:02:27.790Z,8.02
2022-10-03T15:05:39.513Z,9.05
2022-10-03T15:08:43.745Z,4.78
2022-10-03T15:11:38.365Z,5.22
2022-10-03T15:14:37.202Z,7.05
2022-10-03T15:17:33.335Z,6.10
2022-10-03T15:20:31.113Z,7.95
2022-10-03T15:23:28.124Z,6.70
2022-10-03T15:26:21.849Z,10.10
2022-10-03T15:29:17.349Z,9.70
2022-10-03T15:32:20.853Z,9.75
2022-10-03T15:35:18.324Z,6.47
2022-10-03T15:38:14.528Z,6.28
2022-10-03T15:41:29.209Z,8.60
2022-10-03T15:44:28.837Z,7.53
2022-10-03T15:47:28.403Z,7.60
2022-10-03T15:50:30.759Z,5.03
2022-10-03T15:53:37.281Z,10.23
2022-10-03T15:56:42.827Z,4.85
2022-10-03T15:59:37.007Z,5.28
2022-10-03T16:02:38.332Z,7.85
2022-10-03T16:05:30.815Z,8.32
2022-10-03T16:08:25.146Z,13.70
2022-10-03T16:14:25.013Z,7.30
2022-10-03T16:17:43.995Z,7.57
2022-10-03T16:20:41.465Z,7.07
2022-10-03T16:23:40.564Z,5.25
2022-10-03T16:26:40.000Z,3.70
2022-10-03T16:29:36.295Z,5.80
2022-10-03T16:32:31.159Z,8.52
2022-10-03T16:35:43.519Z,8.82
2022-10-03T16:38:39.768Z,7.93
2022-10-03T16:41:34.232Z,21.95
2022-10-03T16:44:39.693Z,9.05
2022-10-03T16:47:39.498Z,6.45
2022-10-03T16:50:29.965Z,6.13
2022-10-03T16:53:22.459Z,6.05
2022-10-03T16:56:19.697Z,8.57
2022-10-03T16:59:21.599Z,9.38
2022-10-03T17:02:24.969Z,10.68
2022-10-03T17:05:17.528Z,12.65
2022-10-03T17:08:36.944Z,8.88
2022-10-03T17:11:28.798Z,7.78
2022-10-03T17:14:20.830Z,10.02
2022-10-03T17:17:11.236Z,6.45
2022-10-03T17:20:17.836Z,14.55
2022-10-03T17:23:25.398Z,14.18
2022-10-03T17:26:26.082Z,5.03
2022-10-03T17:29:21.557Z,11.07
2022-10-03T17:32:23.223Z,6.47
2022-10-03T17:35:18.515Z,9.30
2022-10-03T17:38:49.042Z,6.90
2022-10-03T17:41:48.367Z,10.73
2022-10-03T17:45:00.428Z,10.43
2022-10-03T17:48:15.306Z,9.38
2022-10-03T17:51:31.466Z,9.20
2022-10-03T17:54:28.402Z,6.20
2022-10-03T17:57:27.867Z,11.90
2022-10-03T18:00:21.981Z,8.25
2022-10-03T18:03:29.891Z,7.80
2022-10-03T18:06:28.981Z,8.70
2022-10-03T18:09:29.732Z,7.35
2022-10-03T18:12:40.387Z,7.88
2022-10-03T18:15:52.558Z,8.38
2022-10-03T18:19:04.535Z,9.32
2022-10-03T18:22:18.630Z,11.32
2022-10-03T18:25:30.712Z,9.18
2022-10-03T18:28:26.231Z,7.95
2022-10-03T18:31:19.259Z,9.80
2022-10-03T18:34:19.563Z,10.68
2022-10-03T18:37:27.803Z,10.38
2022-10-03T18:40:28.405Z,9.05
2022-10-03T18:43:59.876Z,7.70
2022-10-03T18:46:57.641Z,10.07
2022-10-03T18:50:12.719Z,11.88
2022-10-03T18:53:27.689Z,14.48
2022-10-03T18:56:27.295Z,15.45
2022-10-03T18:59:33.988Z,13.93
2022-10-03T19:02:44.479Z,16.80
2022-10-03T19:05:44.475Z,37.85
2022-10-03T19:08:48.234Z,27.77
2022-10-03T19:11:42.081Z,27.53
2022-10-03T19:17:41.511Z,19.92
2022-10-03T19:20:41.436Z,21.13
2022-10-03T19:23:39.442Z,14.75
2022-10-03T19:26:36.009Z,13.65
2022-10-03T19:29:35.325Z,16.00
2022-10-03T19:33:00.706Z,17.73
2022-10-03T19:35:55.525Z,19.50
2022-10-03T19:38:47.897Z,22.30
2022-10-03T19:41:53.324Z,19.83
2022-10-03T19:44:44.267Z,11.93
2022-10-03T19:47:40.550Z,14.25
2022-10-03T19:50:37.528Z,14.23
2022-10-03T19:53:27.674Z,17.48
2022-10-03T19:56:20.919Z,12.95
2022-10-03T19:59:18.446Z,17.75
2022-10-03T20:02:09.161Z,13.10
2022-10-03T20:05:00.888Z,15.57
2022-10-03T20:08:07.372Z,14.05
2022-10-03T20:11:19.324Z,49.65
2022-10-03T20:14:26.853Z,41.85
2022-10-03T20:17:23.353Z,31.60
2022-10-03T20:20:21.746Z,22.00
2022-10-03T20:23:15.471Z,23.05
2022-10-03T20:26:25.433Z,23.27
2022-10-03T20:29:15.820Z,21.50
2022-10-03T20:32:07.174Z,16.90
2022-10-03T20:35:00.183Z,17.40
2022-10-03T20:38:21.051Z,17.92
2022-10-03T20:41:31.423Z,20.45
2022-10-03T20:44:41.418Z,22.08
2022-10-03T20:47:38.526Z,21.38
2022-10-03T20:50:38.148Z,14.40
2022-10-03T20:53:31.386Z,17.80
2022-10-03T20:56:33.672Z,22.25
2022-10-03T21:00:10.375Z,24.50
2022-10-03T21:03:22.852Z,20.00
2022-10-03T21:06:27.374Z,17.42
2022-10-03T21:09:33.765Z,17.17
2022-10-03T21:12:29.451Z,19.17
2022-10-03T21:15:30.146Z,16.48
2022-10-03T21:18:37.524Z,22.05
2022-10-03T21:21:31.306Z,19.90
2022-10-03T21:24:31.046Z,20.25
2022-10-03T21:27:22.652Z,22.83
2022-10-03T21:30:13.137Z,20.65
2022-10-03T21:33:21.005Z,20.33
2022-10-03T21:36:25.022Z,23.42
2022-10-03T21:39:39.093Z,21.33
2022-10-03T21:42:41.595Z,20.75
2022-10-03T21:45:42.338Z,22.80
2022-10-03T21:48:38.485Z,25.55
2022-10-03T21:51:59.149Z,19.13
2022-10-03T21:54:57.414Z,17.40
2022-10-03T21:58:25.103Z,20.30
2022-10-03T22:01:38.000Z,25.70
2022-10-03T22:05:02.184Z,23.63
2022-10-03T22:07:52.590Z,26.60
2022-10-03T22:11:09.524Z,25.55
2022-10-03T22:14:17.913Z,23.75
2022-10-03T22:17:26.142Z,21.20
2022-10-03T22:20:23.288Z,25.23
2022-10-03T22:23:32.417Z,25.17
2022-10-03T22:26:42.958Z,25.42
2022-10-03T22:29:44.415Z,22.23
2022-10-03T22:33:18.564Z,22.48
2022-10-03T22:36:12.228Z,25.73
2022-10-03T22:39:09.607Z,22.63
2022-10-03T22:42:02.047Z,22.35
2022-10-03T22:44:54.894Z,21.02
2022-10-03T22:47:50.854Z,23.00
2022-10-03T22:50:42.804Z,20.80
2022-10-03T22:53:36.597Z,17.92
2022-10-03T22:56:48.961Z,22.17
2022-10-03T23:00:01.275Z,23.20
2022-10-03T23:02:59.433Z,23.63
2022-10-03T23:06:05.065Z,25.70
2022-10-03T23:09:14.156Z,26.13
2022-10-03T23:12:05.033Z,26.73
2022-10-03T23:14:56.651Z,22.10
2022-10-03T23:17:53.126Z,18.52
2022-10-03T23:21:02.025Z,23.42
2022-10-03T23:24:03.532Z,21.45
2022-10-03T23:27:09.115Z,19.42
2022-10-03T23:30:12.089Z,21.85
2022-10-03T23:33:02.197Z,21.45
2022-10-03T23:35:52.597Z,24.48
2022-10-03T23:38:51.997Z,18.25
2022-10-03T23:41:44.476Z,17.67
2022-10-03T23:44:40.266Z,18.08
2022-10-03T23:47:39.030Z,19.90
2022-10-03T23:50:46.254Z,18.92
2022-10-03T23:53:39.214Z,18.13
2022-10-03T23:56:35.410Z,15.00
2022-10-03T23:59:26.287Z,18.45
